Knierim, Iowa
Current Conditions -  °F | °C
As of 1:55 PM on Friday 24 Oct 2014 (Local Time) from KFOD Reporting Station
Clear Clear  
Wind Chill: 68°   Ceiling: Unl
Heat Index: 68°   Visibility: 10mi
Dew Point: 59°   Wind: 9mph
Humidity: 73%   Direction: 240°WSW
Pressure: 29.89"   Gusts: NA
Location:  42.46°N, 94.46°W
Report Text: KFOD 241855Z AUTO 24008KT 10SM CLR 20/15 A2989 RMK AO1
Loading
Personal Weather Stations






























Interactive Weather Map
Tropical Storm Tracking
New forecast layout! Learn more

10-Day Weather Forecast

Advertisements
Track Severe Weather on mobile